createdAt,value
2019-03-09T00:00:38.564Z,133.75
2019-03-09T00:03:05.819Z,132.52
2019-03-09T00:05:33.304Z,132.57
2019-03-09T00:08:00.532Z,132.75
2019-03-09T00:10:27.931Z,133.40
2019-03-09T00:12:55.059Z,134.18
2019-03-09T00:15:22.471Z,133.18
2019-03-09T00:17:49.703Z,133.40
2019-03-09T00:20:16.758Z,134.57
2019-03-09T00:22:46.258Z,132.65
2019-03-09T00:25:22.027Z,132.22
2019-03-09T00:27:56.484Z,132.93
2019-03-09T00:30:43.233Z,133.00
2019-03-09T00:33:10.379Z,133.30
2019-03-09T00:35:37.505Z,131.95
2019-03-09T00:38:04.972Z,132.60
2019-03-09T00:40:32.029Z,132.15
2019-03-09T00:43:00.016Z,132.85
2019-03-09T00:45:27.075Z,133.03
2019-03-09T00:47:54.213Z,132.03
2019-03-09T00:50:22.078Z,133.07
2019-03-09T00:52:49.551Z,133.60
2019-03-09T00:55:17.134Z,133.52
2019-03-09T00:57:45.631Z,134.78
2019-03-09T01:00:15.960Z,133.63
2019-03-09T01:02:43.520Z,132.45
2019-03-09T01:05:11.180Z,135.30
2019-03-09T01:07:38.216Z,133.52
2019-03-09T01:10:07.966Z,133.60
2019-03-09T01:12:35.057Z,134.12
2019-03-09T01:15:02.615Z,133.75
2019-03-09T01:17:30.728Z,134.07
2019-03-09T01:19:57.869Z,134.25
2019-03-09T01:22:24.967Z,133.72
2019-03-09T01:24:52.467Z,134.00
2019-03-09T01:27:19.525Z,133.93
2019-03-09T01:29:46.662Z,133.40
2019-03-09T01:32:14.197Z,133.93
2019-03-09T01:34:41.433Z,136.03
2019-03-09T01:37:08.478Z,132.80
2019-03-09T01:39:36.943Z,133.60
2019-03-09T01:42:04.019Z,132.95
2019-03-09T01:44:31.080Z,132.70
2019-03-09T01:46:58.527Z,134.43
2019-03-09T01:49:25.573Z,133.10
2019-03-09T01:51:52.641Z,133.60
2019-03-09T01:54:19.685Z,133.37
2019-03-09T01:56:47.152Z,133.25
2019-03-09T01:59:14.191Z,132.82
2019-03-09T02:01:42.122Z,133.93
2019-03-09T02:04:09.233Z,133.67
2019-03-09T02:06:36.317Z,133.78
2019-03-09T02:09:05.144Z,133.45
2019-03-09T02:11:34.093Z,133.95
2019-03-09T02:14:01.299Z,134.15
2019-03-09T02:16:28.772Z,133.57
2019-03-09T02:18:55.871Z,133.12
2019-03-09T02:21:24.744Z,133.00
2019-03-09T02:23:51.884Z,133.80
2019-03-09T02:26:18.939Z,132.18
2019-03-09T02:28:46.012Z,133.87
2019-03-09T02:31:13.101Z,134.35
2019-03-09T02:33:40.506Z,132.93
2019-03-09T02:36:07.552Z,133.03
2019-03-09T02:38:51.816Z,133.63
2019-03-09T02:41:18.938Z,134.60
2019-03-09T02:43:45.959Z,133.95
2019-03-09T02:46:13.010Z,134.72
2019-03-09T02:48:40.069Z,134.57
2019-03-09T02:51:07.532Z,134.70
2019-03-09T02:53:34.566Z,134.65
2019-03-09T02:56:01.994Z,133.90
2019-03-09T02:58:29.048Z,134.55
2019-03-09T03:01:21.672Z,133.65
2019-03-09T03:03:48.715Z,132.47
2019-03-09T03:06:15.931Z,134.60
2019-03-09T03:08:43.443Z,134.12
2019-03-09T03:11:10.509Z,132.97
2019-03-09T03:13:37.574Z,134.27
2019-03-09T03:16:04.628Z,133.30
2019-03-09T03:18:31.663Z,133.55
2019-03-09T03:20:59.812Z,132.87
2019-03-09T03:23:27.607Z,133.87
2019-03-09T03:25:54.883Z,132.35
2019-03-09T03:28:22.057Z,133.50
2019-03-09T03:30:49.103Z,134.43
2019-03-09T03:33:17.358Z,134.12
2019-03-09T03:35:44.395Z,135.90
2019-03-09T03:38:11.891Z,134.35
2019-03-09T03:40:39.242Z,135.00
2019-03-09T03:43:06.305Z,134.18
2019-03-09T03:45:33.679Z,134.43
2019-03-09T03:48:00.743Z,133.55
2019-03-09T03:50:27.763Z,133.70
2019-03-09T03:52:54.828Z,132.40
2019-03-09T03:55:22.265Z,133.55
2019-03-09T03:57:50.439Z,133.18
2019-03-09T04:00:17.830Z,133.03
2019-03-09T04:02:45.226Z,132.95
2019-03-09T04:05:12.293Z,133.18
2019-03-09T04:07:40.655Z,132.57
2019-03-09T04:10:08.023Z,133.20
2019-03-09T04:12:35.284Z,132.52
2019-03-09T04:15:02.450Z,133.00
2019-03-09T04:17:30.127Z,133.27
2019-03-09T04:19:57.197Z,131.72
2019-03-09T04:22:24.237Z,132.85
2019-03-09T04:24:51.281Z,131.60
2019-03-09T04:27:18.372Z,131.32
2019-03-09T04:29:45.410Z,131.70
2019-03-09T04:32:12.464Z,131.87
2019-03-09T04:34:40.161Z,131.78
2019-03-09T04:37:07.259Z,131.55
2019-03-09T04:39:34.373Z,130.87
2019-03-09T04:42:01.809Z,131.30
2019-03-09T04:44:30.216Z,130.95
2019-03-09T04:46:58.377Z,131.52
2019-03-09T04:49:25.382Z,130.27
2019-03-09T04:51:52.413Z,131.25
2019-03-09T04:54:19.437Z,131.95
2019-03-09T04:56:46.702Z,133.45
2019-03-09T04:59:13.843Z,132.52
2019-03-09T05:01:40.873Z,131.82
2019-03-09T05:05:04.286Z,132.60
2019-03-09T05:07:36.699Z,131.57
2019-03-09T05:10:17.866Z,131.30
2019-03-09T05:12:46.066Z,129.90
2019-03-09T05:15:13.220Z,130.47
2019-03-09T05:17:40.292Z,130.63
2019-03-09T05:20:09.825Z,130.70
2019-03-09T05:22:37.001Z,131.27
2019-03-09T05:25:06.106Z,130.63
2019-03-09T05:27:34.970Z,131.95
2019-03-09T05:30:02.378Z,131.57
2019-03-09T05:32:29.898Z,131.12
2019-03-09T05:34:57.396Z,130.87
2019-03-09T05:37:24.433Z,132.30
2019-03-09T05:39:51.520Z,133.05
2019-03-09T05:42:18.894Z,131.55
2019-03-09T05:44:45.965Z,132.35
2019-03-09T05:47:13.034Z,130.93
2019-03-09T05:49:40.124Z,133.37
2019-03-09T05:52:36.132Z,133.80
2019-03-09T05:55:17.246Z,132.07
2019-03-09T05:57:44.875Z,131.52
2019-03-09T06:00:13.733Z,132.27
2019-03-09T06:02:40.814Z,131.35
2019-03-09T06:05:34.118Z,131.63
2019-03-09T06:08:01.157Z,131.65
2019-03-09T06:10:29.985Z,130.95
2019-03-09T06:12:57.477Z,133.18
2019-03-09T06:15:24.505Z,131.85
2019-03-09T06:17:51.800Z,132.07
2019-03-09T06:20:18.863Z,131.20
2019-03-09T06:22:45.920Z,132.57
2019-03-09T06:25:12.968Z,131.78
2019-03-09T06:27:40.068Z,132.15
2019-03-09T06:30:07.634Z,132.95
2019-03-09T06:33:35.610Z,132.87
2019-03-09T06:36:26.962Z,131.30
2019-03-09T06:39:22.531Z,131.52
2019-03-09T06:41:56.461Z,131.27
2019-03-09T06:44:23.527Z,132.22
2019-03-09T06:46:50.618Z,132.18
2019-03-09T06:49:18.909Z,130.78
2019-03-09T06:51:47.126Z,130.50
2019-03-09T06:54:14.181Z,130.67
2019-03-09T06:56:41.220Z,131.00
2019-03-09T06:59:08.413Z,132.12
2019-03-09T07:01:35.447Z,131.20
2019-03-09T07:04:03.059Z,131.37
2019-03-09T07:06:31.912Z,131.22
2019-03-09T07:08:59.186Z,132.50
2019-03-09T07:11:26.290Z,131.72
2019-03-09T07:13:53.517Z,132.27
2019-03-09T07:16:20.614Z,133.00
2019-03-09T07:18:47.697Z,131.87
2019-03-09T07:21:15.171Z,133.90
2019-03-09T07:23:43.449Z,134.95
2019-03-09T07:26:10.494Z,133.15
2019-03-09T07:28:38.894Z,132.78
2019-03-09T07:31:10.359Z,134.27
2019-03-09T07:33:37.431Z,131.22
2019-03-09T07:36:04.736Z,131.75
2019-03-09T07:38:32.584Z,134.43
2019-03-09T07:40:59.639Z,132.90
2019-03-09T07:43:26.693Z,132.20
2019-03-09T07:45:53.766Z,134.10
2019-03-09T07:48:20.902Z,133.75
2019-03-09T07:50:56.873Z,135.15
2019-03-09T07:53:24.586Z,133.45
2019-03-09T07:55:51.684Z,133.35
2019-03-09T07:58:19.274Z,134.55
2019-03-09T08:00:46.315Z,134.07
2019-03-09T08:03:15.015Z,135.22
2019-03-09T08:05:42.770Z,134.45
2019-03-09T08:08:09.988Z,134.50
2019-03-09T08:10:37.956Z,136.40
2019-03-09T08:13:05.514Z,135.25
2019-03-09T08:15:34.374Z,135.35
2019-03-09T08:18:01.440Z,136.35
2019-03-09T08:20:29.079Z,138.77
2019-03-09T08:22:56.142Z,135.43
2019-03-09T08:25:23.213Z,135.18
2019-03-09T08:27:50.295Z,135.05
2019-03-09T08:30:19.585Z,135.37
2019-03-09T08:32:47.078Z,136.57
2019-03-09T08:35:16.024Z,138.52
2019-03-09T08:37:43.111Z,137.97
2019-03-09T08:40:12.735Z,137.70
2019-03-09T08:42:39.814Z,135.60
2019-03-09T08:45:07.594Z,137.43
2019-03-09T08:47:34.646Z,135.70
2019-03-09T08:50:01.777Z,134.78
2019-03-09T08:52:30.861Z,135.60
2019-03-09T08:54:58.309Z,135.57
2019-03-09T08:57:25.446Z,136.18
2019-03-09T08:59:52.649Z,136.97
2019-03-09T09:02:20.326Z,137.15
2019-03-09T09:04:47.428Z,136.47
2019-03-09T09:07:15.571Z,136.25
2019-03-09T09:09:42.661Z,136.20
2019-03-09T09:12:10.219Z,136.68
2019-03-09T09:14:37.314Z,135.35
2019-03-09T09:17:04.349Z,136.97
2019-03-09T09:19:31.466Z,134.60
2019-03-09T09:21:59.604Z,136.70
2019-03-09T09:24:26.689Z,136.07
2019-03-09T09:26:54.168Z,137.40
2019-03-09T09:29:21.226Z,137.50
2019-03-09T09:31:48.837Z,136.32
2019-03-09T09:34:16.084Z,138.05
2019-03-09T09:36:43.359Z,138.90
2019-03-09T09:39:10.415Z,136.80
2019-03-09T09:41:39.520Z,136.00
2019-03-09T09:44:06.693Z,136.85
2019-03-09T09:46:34.056Z,137.85
2019-03-09T09:49:01.162Z,137.45
2019-03-09T09:51:28.331Z,135.65
2019-03-09T09:53:55.398Z,135.93
2019-03-09T09:56:23.618Z,137.03
2019-03-09T09:58:52.749Z,136.20
2019-03-09T10:01:20.127Z,138.57
2019-03-09T10:03:47.245Z,136.57
2019-03-09T10:06:14.534Z,136.88
2019-03-09T10:08:41.592Z,138.62
2019-03-09T10:11:08.745Z,139.20
2019-03-09T10:13:35.931Z,140.28
2019-03-09T10:16:03.067Z,139.28
2019-03-09T10:18:30.147Z,139.80
2019-03-09T10:20:57.213Z,140.43
2019-03-09T10:23:24.313Z,140.32
2019-03-09T10:25:54.370Z,139.60
2019-03-09T10:28:21.435Z,140.00
2019-03-09T10:30:48.519Z,139.35
2019-03-09T10:33:15.687Z,138.60
2019-03-09T10:35:42.871Z,139.32
2019-03-09T10:38:10.068Z,138.88
2019-03-09T10:40:42.890Z,139.90
2019-03-09T10:43:09.961Z,137.90
2019-03-09T10:45:37.289Z,138.82
2019-03-09T10:48:04.441Z,138.00
2019-03-09T10:50:31.512Z,138.35
2019-03-09T10:52:59.126Z,137.10
2019-03-09T10:55:28.937Z,139.90
2019-03-09T10:57:56.015Z,137.37
2019-03-09T11:00:25.872Z,137.82
2019-03-09T11:02:53.127Z,138.68
2019-03-09T11:05:20.801Z,137.72
2019-03-09T11:07:49.287Z,139.75
2019-03-09T11:10:16.417Z,137.82
2019-03-09T11:12:43.663Z,138.90
2019-03-09T11:15:12.407Z,138.05
2019-03-09T11:17:39.625Z,138.22
2019-03-09T11:20:07.748Z,139.18
2019-03-09T11:22:34.953Z,137.77
2019-03-09T11:25:03.772Z,137.47
2019-03-09T11:27:31.524Z,137.47
2019-03-09T11:29:58.712Z,137.77
2019-03-09T11:32:26.404Z,138.05
2019-03-09T11:34:53.588Z,138.00
2019-03-09T11:37:20.789Z,138.30
2019-03-09T11:39:48.268Z,137.68
2019-03-09T11:42:15.546Z,138.37
2019-03-09T11:44:42.723Z,137.28
2019-03-09T11:47:10.436Z,137.20
2019-03-09T11:49:37.542Z,139.62
2019-03-09T11:52:06.413Z,138.68
2019-03-09T11:54:34.157Z,137.80
2019-03-09T11:57:01.232Z,138.32
2019-03-09T11:59:28.296Z,140.35
2019-03-09T12:01:55.865Z,138.12
2019-03-09T12:04:23.263Z,139.45
2019-03-09T12:06:50.317Z,136.25
2019-03-09T12:09:17.413Z,136.60
2019-03-09T12:11:57.666Z,137.28
2019-03-09T12:14:25.071Z,136.57
2019-03-09T12:16:53.311Z,136.45
2019-03-09T12:19:20.435Z,136.35
2019-03-09T12:21:47.733Z,136.25
2019-03-09T12:24:18.746Z,137.85
2019-03-09T12:26:43.765Z,138.22
2019-03-09T12:29:12.843Z,136.80
2019-03-09T12:31:40.108Z,137.05
2019-03-09T12:34:07.183Z,138.50
2019-03-09T12:36:34.314Z,139.62
2019-03-09T12:39:01.610Z,137.80
2019-03-09T12:41:31.007Z,137.77
2019-03-09T12:43:58.130Z,137.55
2019-03-09T12:46:25.205Z,136.90
2019-03-09T12:48:54.354Z,138.37
2019-03-09T12:51:21.640Z,139.40
2019-03-09T12:53:48.819Z,137.82
2019-03-09T12:56:23.371Z,139.18
2019-03-09T12:58:50.481Z,137.30
2019-03-09T13:01:18.008Z,136.50
2019-03-09T13:03:45.513Z,136.88
2019-03-09T13:06:12.778Z,136.90
2019-03-09T13:08:40.226Z,135.65
2019-03-09T13:11:07.365Z,135.80
2019-03-09T13:13:36.547Z,136.47
2019-03-09T13:16:03.811Z,135.68
2019-03-09T13:18:31.427Z,137.28
2019-03-09T13:20:58.914Z,135.78
2019-03-09T13:23:26.010Z,135.43
2019-03-09T13:26:02.079Z,135.85
2019-03-09T13:28:30.756Z,137.32
2019-03-09T13:30:57.824Z,138.47
2019-03-09T13:33:24.963Z,136.55
2019-03-09T13:35:52.751Z,137.32
2019-03-09T13:38:19.817Z,137.22
2019-03-09T13:40:47.162Z,137.05
2019-03-09T13:43:14.272Z,137.28
2019-03-09T13:45:44.300Z,136.43
2019-03-09T13:48:11.498Z,136.43
2019-03-09T13:50:39.205Z,135.30
2019-03-09T13:53:06.312Z,134.72
2019-03-09T13:55:33.582Z,134.97
2019-03-09T13:58:01.163Z,135.20
2019-03-09T14:00:39.737Z,135.05
2019-03-09T14:02:58.906Z,134.90
2019-03-09T14:05:25.997Z,135.70
2019-03-09T14:07:56.984Z,135.18
2019-03-09T14:10:24.148Z,135.80
2019-03-09T14:12:51.289Z,136.47
2019-03-09T14:15:18.355Z,135.22
2019-03-09T14:17:45.588Z,136.70
2019-03-09T14:20:13.590Z,135.45
2019-03-09T14:22:40.658Z,136.55
2019-03-09T14:25:08.410Z,136.03
2019-03-09T14:27:35.482Z,134.40
2019-03-09T14:30:03.034Z,135.65
2019-03-09T14:32:31.235Z,134.57
2019-03-09T14:34:58.424Z,135.78
2019-03-09T14:37:27.284Z,135.12
2019-03-09T14:39:54.890Z,134.78
2019-03-09T14:42:22.155Z,135.52
2019-03-09T14:44:49.241Z,135.22
2019-03-09T14:47:16.608Z,135.28
2019-03-09T14:49:45.618Z,137.30
2019-03-09T14:52:12.686Z,136.03
2019-03-09T14:54:40.788Z,136.60
2019-03-09T14:57:07.911Z,135.82
2019-03-09T14:59:35.446Z,135.78
2019-03-09T15:02:02.559Z,136.77
2019-03-09T15:04:29.856Z,136.00
2019-03-09T15:07:03.017Z,136.45
2019-03-09T15:09:30.129Z,137.50
2019-03-09T15:11:57.423Z,135.88
2019-03-09T15:14:24.729Z,136.95
2019-03-09T15:16:52.114Z,137.52
2019-03-09T15:19:19.195Z,139.70
2019-03-09T15:21:46.911Z,139.03
2019-03-09T15:24:14.004Z,138.18
2019-03-09T15:26:41.238Z,137.62
2019-03-09T15:29:08.348Z,139.80
2019-03-09T15:31:36.831Z,138.80
2019-03-09T15:34:08.179Z,138.12
2019-03-09T15:36:36.002Z,137.68
2019-03-09T15:39:04.792Z,136.15
2019-03-09T15:41:33.794Z,137.68
2019-03-09T15:44:01.358Z,139.25
2019-03-09T15:46:28.691Z,138.22
2019-03-09T15:48:55.759Z,135.90
2019-03-09T15:51:23.151Z,139.60
2019-03-09T15:53:50.253Z,136.62
2019-03-09T15:56:18.301Z,139.15
2019-03-09T15:58:46.013Z,137.77
2019-03-09T16:01:13.157Z,139.43
2019-03-09T16:03:40.294Z,138.57
2019-03-09T16:06:07.355Z,138.80
2019-03-09T16:08:35.026Z,139.03
2019-03-09T16:11:02.290Z,141.68
2019-03-09T16:13:29.818Z,139.88
2019-03-09T16:15:57.701Z,138.45
2019-03-09T16:18:25.127Z,139.03
2019-03-09T16:20:52.321Z,137.40
2019-03-09T16:23:19.765Z,136.50
2019-03-09T16:25:47.077Z,138.55
2019-03-09T16:28:14.295Z,135.43
2019-03-09T16:30:42.417Z,137.32
2019-03-09T16:33:09.493Z,137.30
2019-03-09T16:35:36.675Z,138.70
2019-03-09T16:38:03.803Z,136.72
2019-03-09T16:40:40.202Z,136.60
2019-03-09T16:43:00.508Z,137.25
2019-03-09T16:45:27.662Z,136.45
2019-03-09T16:47:54.778Z,136.72
2019-03-09T16:50:21.944Z,135.78
2019-03-09T16:52:49.129Z,135.18
2019-03-09T16:55:16.263Z,136.57
2019-03-09T16:57:44.024Z,137.05
2019-03-09T17:00:14.281Z,136.97
2019-03-09T17:02:41.641Z,135.80
2019-03-09T17:05:09.191Z,136.90
2019-03-09T17:07:36.481Z,136.32
2019-03-09T17:10:04.300Z,136.43
2019-03-09T17:12:31.676Z,135.00
2019-03-09T17:14:58.781Z,136.15
2019-03-09T17:17:26.337Z,136.12
2019-03-09T17:19:53.537Z,136.55
2019-03-09T17:22:20.891Z,135.82
2019-03-09T17:24:48.360Z,136.35
2019-03-09T17:27:15.541Z,135.52
2019-03-09T17:29:42.630Z,135.40
2019-03-09T17:32:10.451Z,135.85
2019-03-09T17:34:38.663Z,135.28
2019-03-09T17:37:05.857Z,136.12
2019-03-09T17:39:37.013Z,135.93
2019-03-09T17:42:04.367Z,135.70
2019-03-09T17:44:31.491Z,135.65
2019-03-09T17:46:58.928Z,135.88
2019-03-09T17:49:27.347Z,137.12
2019-03-09T17:51:54.586Z,135.95
2019-03-09T17:54:21.771Z,135.25
2019-03-09T17:56:49.081Z,135.93
2019-03-09T17:59:16.348Z,136.97
2019-03-09T18:01:44.029Z,135.55
2019-03-09T18:04:11.153Z,137.60
2019-03-09T18:06:50.618Z,139.00
2019-03-09T18:09:19.911Z,137.40
2019-03-09T18:11:47.171Z,138.40
2019-03-09T18:14:14.348Z,137.97
2019-03-09T18:16:52.264Z,137.92
2019-03-09T18:19:12.012Z,136.28
2019-03-09T18:21:39.213Z,136.57
2019-03-09T18:24:07.599Z,135.05
2019-03-09T18:26:34.792Z,135.48
2019-03-09T18:29:01.901Z,136.50
2019-03-09T18:31:28.982Z,136.65
2019-03-09T18:33:56.180Z,135.30
2019-03-09T18:36:23.376Z,136.03
2019-03-09T18:38:52.830Z,133.78
2019-03-09T18:41:20.007Z,134.97
2019-03-09T18:43:47.209Z,135.48
2019-03-09T18:46:14.720Z,134.18
2019-03-09T18:48:42.342Z,134.37
2019-03-09T18:51:14.307Z,136.55
2019-03-09T18:53:41.502Z,135.78
2019-03-09T18:56:08.889Z,137.68
2019-03-09T18:58:36.026Z,136.32
2019-03-09T19:01:03.105Z,135.25
2019-03-09T19:03:33.210Z,136.35
2019-03-09T19:06:00.457Z,136.45
2019-03-09T19:08:27.587Z,135.00
2019-03-09T19:10:55.314Z,136.43
2019-03-09T19:13:22.521Z,135.65
2019-03-09T19:15:49.672Z,135.30
2019-03-09T19:18:17.674Z,135.18
2019-03-09T19:20:44.784Z,135.60
2019-03-09T19:23:11.909Z,134.40
2019-03-09T19:25:39.018Z,135.07
2019-03-09T19:28:06.118Z,135.75
2019-03-09T19:30:33.365Z,135.85
2019-03-09T19:33:00.889Z,135.43
2019-03-09T19:35:28.149Z,134.30
2019-03-09T19:37:55.999Z,136.80
2019-03-09T19:40:23.458Z,134.32
2019-03-09T19:42:50.722Z,136.05
2019-03-09T19:45:17.843Z,134.93
2019-03-09T19:47:45.317Z,133.72
2019-03-09T19:50:17.053Z,134.47
2019-03-09T19:52:48.328Z,137.22
2019-03-09T19:55:15.729Z,135.48
2019-03-09T19:57:44.027Z,135.68
2019-03-09T20:00:12.135Z,136.20
2019-03-09T20:02:39.207Z,135.40
2019-03-09T20:05:08.436Z,135.57
2019-03-09T20:07:36.309Z,134.52
2019-03-09T20:10:04.180Z,135.97
2019-03-09T20:12:31.390Z,135.32
2019-03-09T20:14:59.610Z,134.97
2019-03-09T20:17:27.124Z,136.37
2019-03-09T20:19:54.295Z,137.40
2019-03-09T20:22:22.675Z,135.80
2019-03-09T20:24:49.842Z,135.82
2019-03-09T20:27:16.943Z,135.82
2019-03-09T20:29:44.248Z,136.18
2019-03-09T20:32:11.455Z,137.47
2019-03-09T20:34:38.802Z,136.40
2019-03-09T20:37:05.880Z,136.22
2019-03-09T20:39:33.235Z,135.72
2019-03-09T20:42:00.499Z,138.70
2019-03-09T20:44:28.199Z,135.95
2019-03-09T20:46:55.358Z,135.55
2019-03-09T20:49:22.693Z,135.60
2019-03-09T20:51:49.790Z,136.00
2019-03-09T20:54:16.925Z,137.18
2019-03-09T20:56:44.250Z,135.37
2019-03-09T20:59:12.154Z,135.45
2019-03-09T21:01:40.260Z,136.32
2019-03-09T21:04:07.512Z,135.78
2019-03-09T21:06:35.043Z,134.65
2019-03-09T21:09:04.288Z,136.45
2019-03-09T21:11:32.955Z,135.55
2019-03-09T21:14:02.326Z,136.55
2019-03-09T21:16:29.999Z,135.55
2019-03-09T21:18:57.116Z,137.12
2019-03-09T21:21:24.281Z,138.35
2019-03-09T21:23:51.534Z,136.45
2019-03-09T21:26:18.859Z,136.90
2019-03-09T21:28:45.960Z,136.10
2019-03-09T21:31:13.035Z,137.57
2019-03-09T21:33:40.117Z,137.70
2019-03-09T21:36:07.608Z,134.72
2019-03-09T21:38:34.810Z,135.50
2019-03-09T21:41:01.921Z,135.65
2019-03-09T21:43:29.315Z,135.30
2019-03-09T21:45:56.374Z,135.37
2019-03-09T21:48:23.794Z,135.20
2019-03-09T21:50:51.390Z,136.35
2019-03-09T21:53:18.471Z,136.70
2019-03-09T21:55:45.602Z,136.07
2019-03-09T21:58:13.241Z,136.62
2019-03-09T22:00:40.334Z,136.68
2019-03-09T22:03:07.648Z,135.22
2019-03-09T22:05:35.020Z,136.18
2019-03-09T22:08:04.027Z,136.47
2019-03-09T22:10:31.137Z,135.40
2019-03-09T22:12:58.191Z,136.75
2019-03-09T22:15:25.339Z,135.52
2019-03-09T22:17:52.823Z,135.32
2019-03-09T22:20:20.724Z,136.65
2019-03-09T22:22:47.946Z,136.22
2019-03-09T22:25:15.806Z,136.52
2019-03-09T22:27:43.399Z,135.48
2019-03-09T22:30:11.413Z,135.78
2019-03-09T22:32:38.627Z,135.32
2019-03-09T22:35:06.934Z,135.72
2019-03-09T22:37:34.084Z,136.92
2019-03-09T22:40:01.249Z,137.60
2019-03-09T22:42:28.296Z,136.75
2019-03-09T22:44:56.021Z,136.75
2019-03-09T22:47:24.218Z,138.40
2019-03-09T22:49:52.955Z,136.28
2019-03-09T22:52:20.320Z,136.40
2019-03-09T22:54:47.609Z,136.47
2019-03-09T22:57:15.174Z,136.37
2019-03-09T22:59:42.312Z,135.65
2019-03-09T23:02:09.626Z,136.92
2019-03-09T23:04:36.798Z,137.55
2019-03-09T23:07:03.842Z,135.45
2019-03-09T23:09:31.224Z,137.90
2019-03-09T23:11:58.307Z,135.80
2019-03-09T23:14:25.406Z,136.75
2019-03-09T23:16:52.626Z,138.68
2019-03-09T23:19:19.695Z,139.05
2019-03-09T23:21:47.009Z,142.45
2019-03-09T23:24:14.592Z,141.15
2019-03-09T23:26:41.810Z,140.62
2019-03-09T23:29:09.094Z,139.75
2019-03-09T23:31:36.747Z,140.25
2019-03-09T23:34:04.059Z,140.62
2019-03-09T23:36:31.719Z,140.07
2019-03-09T23:38:58.798Z,139.80
2019-03-09T23:41:26.291Z,138.68
2019-03-09T23:43:53.498Z,137.68
2019-03-09T23:46:20.792Z,139.22
2019-03-09T23:48:50.398Z,137.60
2019-03-09T23:51:17.671Z,138.00
2019-03-09T23:53:44.741Z,137.92
2019-03-09T23:56:13.611Z,138.22
2019-03-09T23:58:40.785Z,138.75
